createdAt,value
2019-03-28T00:00:41.802Z,31.50
2019-03-28T00:02:43.182Z,28.23
2019-03-28T00:04:44.688Z,38.57
2019-03-28T00:06:46.060Z,27.67
2019-03-28T00:08:47.457Z,28.80
2019-03-28T00:10:48.829Z,30.63
2019-03-28T00:12:50.189Z,26.80
2019-03-28T00:14:51.594Z,34.10
2019-03-28T00:16:52.962Z,27.40
2019-03-28T00:18:57.340Z,29.70
2019-03-28T00:20:57.666Z,30.17
2019-03-28T00:23:01.002Z,26.23
2019-03-28T00:25:08.688Z,27.57
2019-03-28T00:27:10.096Z,27.17
2019-03-28T00:29:11.469Z,29.07
2019-03-28T00:31:12.865Z,27.17
2019-03-28T00:33:14.239Z,25.13
2019-03-28T00:35:15.595Z,28.17
2019-03-28T00:37:17.005Z,28.13
2019-03-28T00:39:18.419Z,27.37
2019-03-28T00:41:20.211Z,23.77
2019-03-28T00:43:21.924Z,24.50
2019-03-28T00:45:23.296Z,21.70
2019-03-28T00:47:24.691Z,28.57
2019-03-28T00:49:26.100Z,26.63
2019-03-28T00:51:27.459Z,28.97
2019-03-28T00:53:28.820Z,26.23
2019-03-28T00:55:30.223Z,29.57
2019-03-28T00:57:31.583Z,28.40
2019-03-28T00:59:32.937Z,22.40
2019-03-28T01:01:34.367Z,28.17
2019-03-28T01:03:36.348Z,21.90
2019-03-28T01:05:38.002Z,22.63
2019-03-28T01:07:39.505Z,24.57
2019-03-28T01:09:40.897Z,21.23
2019-03-28T01:11:42.286Z,23.03
2019-03-28T01:13:43.660Z,24.70
2019-03-28T01:15:45.288Z,23.00
2019-03-28T01:17:46.818Z,25.50
2019-03-28T01:19:48.204Z,21.30
2019-03-28T01:21:49.645Z,21.67
2019-03-28T01:23:51.007Z,22.67
2019-03-28T01:25:53.192Z,23.23
2019-03-28T01:27:54.716Z,20.97
2019-03-28T01:29:56.115Z,23.93
2019-03-28T01:31:57.480Z,21.37
2019-03-28T01:33:58.872Z,22.17
2019-03-28T01:36:00.266Z,22.10
2019-03-28T01:38:02.052Z,19.63
2019-03-28T01:40:05.423Z,21.47
2019-03-28T01:42:06.814Z,20.77
2019-03-28T01:44:08.222Z,21.27
2019-03-28T01:46:09.596Z,22.00
2019-03-28T01:48:10.989Z,18.30
2019-03-28T01:50:12.449Z,25.13
2019-03-28T01:52:14.028Z,19.63
2019-03-28T01:54:15.390Z,20.53
2019-03-28T01:56:17.158Z,18.20
2019-03-28T01:58:18.544Z,19.80
2019-03-28T02:00:19.939Z,20.07
2019-03-28T02:02:21.409Z,19.40
2019-03-28T02:04:22.765Z,22.40
2019-03-28T02:06:24.210Z,19.57
2019-03-28T02:08:25.581Z,19.30
2019-03-28T02:10:26.935Z,23.40
2019-03-28T02:12:28.348Z,20.13
2019-03-28T02:14:29.697Z,22.10
2019-03-28T02:16:31.055Z,20.70
2019-03-28T02:18:32.441Z,18.73
2019-03-28T02:20:33.804Z,22.90
2019-03-28T02:22:35.479Z,22.27
2019-03-28T02:24:36.883Z,20.70
2019-03-28T02:26:38.228Z,20.53
2019-03-28T02:28:39.581Z,18.57
2019-03-28T02:30:40.979Z,22.17
2019-03-28T02:32:42.506Z,20.87
2019-03-28T02:34:43.868Z,22.73
2019-03-28T02:36:45.232Z,22.60
2019-03-28T02:38:46.695Z,22.90
2019-03-28T02:40:48.145Z,23.50
2019-03-28T02:42:49.509Z,21.43
2019-03-28T02:44:50.919Z,20.40
2019-03-28T02:46:52.296Z,23.77
2019-03-28T02:48:53.904Z,23.10
2019-03-28T02:50:55.736Z,22.50
2019-03-28T02:52:57.128Z,22.90
2019-03-28T02:54:58.534Z,26.43
2019-03-28T02:56:59.944Z,25.30
2019-03-28T02:59:01.314Z,22.07
2019-03-28T03:01:02.895Z,21.63
2019-03-28T03:03:04.364Z,20.37
2019-03-28T03:05:06.939Z,20.07
2019-03-28T03:07:08.331Z,21.07
2019-03-28T03:09:09.735Z,21.47
2019-03-28T03:11:11.554Z,21.30
2019-03-28T03:13:12.905Z,20.03
2019-03-28T03:15:14.920Z,22.07
2019-03-28T03:17:16.274Z,21.57
2019-03-28T03:19:17.655Z,23.83
2019-03-28T03:21:19.047Z,23.83
2019-03-28T03:23:20.507Z,23.93
2019-03-28T03:25:22.129Z,24.93
2019-03-28T03:27:23.489Z,24.43
2019-03-28T03:29:24.851Z,20.60
2019-03-28T03:31:26.258Z,21.90
2019-03-28T03:33:27.638Z,19.07
2019-03-28T03:35:28.987Z,21.33
2019-03-28T03:37:30.382Z,23.47
2019-03-28T03:39:31.805Z,21.40
2019-03-28T03:41:33.176Z,24.67
2019-03-28T03:43:34.551Z,24.30
2019-03-28T03:45:36.007Z,22.67
2019-03-28T03:47:37.410Z,24.60
2019-03-28T03:49:38.828Z,25.93
2019-03-28T03:51:40.748Z,24.90
2019-03-28T03:53:42.442Z,23.47
2019-03-28T03:55:43.830Z,23.33
2019-03-28T03:57:45.185Z,21.70
2019-03-28T03:59:46.547Z,18.43
2019-03-28T04:01:47.891Z,17.30
2019-03-28T04:03:49.243Z,23.60
2019-03-28T04:05:50.624Z,21.33
2019-03-28T04:07:51.969Z,20.60
2019-03-28T04:09:53.511Z,21.37
2019-03-28T04:11:54.935Z,18.70
2019-03-28T04:13:56.312Z,20.67
2019-03-28T04:15:57.657Z,21.80
2019-03-28T04:17:58.989Z,22.13
2019-03-28T04:20:00.544Z,21.57
2019-03-28T04:22:01.979Z,20.57
2019-03-28T04:24:03.334Z,24.10
2019-03-28T04:26:05.865Z,21.83
2019-03-28T04:28:07.613Z,19.37
2019-03-28T04:30:09.709Z,20.20
2019-03-28T04:32:11.087Z,20.77
2019-03-28T04:34:12.439Z,19.83
2019-03-28T04:36:14.781Z,16.63
2019-03-28T04:38:16.169Z,24.63
2019-03-28T04:40:17.517Z,21.43
2019-03-28T04:42:18.896Z,24.17
2019-03-28T04:44:20.395Z,21.87
2019-03-28T04:46:22.576Z,16.93
2019-03-28T04:48:23.982Z,23.07
2019-03-28T04:50:25.351Z,17.40
2019-03-28T04:52:26.711Z,20.13
2019-03-28T04:54:28.127Z,18.73
2019-03-28T04:56:29.476Z,19.43
2019-03-28T04:58:43.454Z,21.17
2019-03-28T05:00:34.147Z,20.50
2019-03-28T05:02:35.523Z,19.47
2019-03-28T05:04:36.935Z,19.77
2019-03-28T05:06:38.301Z,18.67
2019-03-28T05:08:39.698Z,18.20
2019-03-28T05:10:41.598Z,19.10
2019-03-28T05:12:43.309Z,18.60
2019-03-28T05:14:44.680Z,19.23
2019-03-28T05:16:46.130Z,19.60
2019-03-28T05:18:47.525Z,20.40
2019-03-28T05:20:48.917Z,19.90
2019-03-28T05:22:50.263Z,21.80
2019-03-28T05:24:51.666Z,16.20
2019-03-28T05:26:53.072Z,15.63
2019-03-28T05:28:57.773Z,16.77
2019-03-28T05:30:57.740Z,17.27
2019-03-28T05:32:59.091Z,18.03
2019-03-28T05:35:00.686Z,16.10
2019-03-28T05:37:02.140Z,19.17
2019-03-28T05:39:05.227Z,17.00
2019-03-28T05:41:06.589Z,17.70
2019-03-28T05:43:07.980Z,22.13
2019-03-28T05:45:09.979Z,19.33
2019-03-28T05:47:11.381Z,22.57
2019-03-28T05:49:12.782Z,16.43
2019-03-28T05:51:14.349Z,18.03
2019-03-28T05:53:15.738Z,17.33
2019-03-28T05:55:17.092Z,19.17
2019-03-28T05:57:18.501Z,17.83
2019-03-28T05:59:23.079Z,17.90
2019-03-28T06:01:24.431Z,18.47
2019-03-28T06:03:25.904Z,18.20
2019-03-28T06:05:27.292Z,20.20
2019-03-28T06:07:28.649Z,19.03
2019-03-28T06:09:30.038Z,18.73
2019-03-28T06:11:31.636Z,16.70
2019-03-28T06:13:33.134Z,20.57
2019-03-28T06:15:34.498Z,18.57
2019-03-28T06:17:35.883Z,18.93
2019-03-28T06:19:38.274Z,22.50
2019-03-28T06:21:39.904Z,19.20
2019-03-28T06:23:41.329Z,19.70
2019-03-28T06:25:42.715Z,22.40
2019-03-28T06:27:44.089Z,21.60
2019-03-28T06:29:45.562Z,22.10
2019-03-28T06:31:55.198Z,21.60
2019-03-28T06:33:50.910Z,25.60
2019-03-28T06:35:52.284Z,24.67
2019-03-28T06:37:53.665Z,18.37
2019-03-28T06:39:55.014Z,22.43
2019-03-28T06:41:56.399Z,20.20
2019-03-28T06:43:57.746Z,18.60
2019-03-28T06:45:59.130Z,19.23
2019-03-28T06:48:00.474Z,19.50
2019-03-28T06:50:03.951Z,19.27
2019-03-28T06:52:05.310Z,23.20
2019-03-28T06:54:06.692Z,19.20
2019-03-28T06:56:08.072Z,21.50
2019-03-28T06:58:09.434Z,23.37
2019-03-28T07:00:11.528Z,22.80
2019-03-28T07:02:12.889Z,21.87
2019-03-28T07:04:14.238Z,19.63
2019-03-28T07:06:15.618Z,26.87
2019-03-28T07:08:17.232Z,24.57
2019-03-28T07:10:18.592Z,21.60
2019-03-28T07:12:19.949Z,19.83
2019-03-28T07:14:21.360Z,24.67
2019-03-28T07:16:22.730Z,27.30
2019-03-28T07:18:24.288Z,26.37
2019-03-28T07:20:26.363Z,25.47
2019-03-28T07:22:27.993Z,24.30
2019-03-28T07:24:29.552Z,23.00
2019-03-28T07:26:30.904Z,22.00
2019-03-28T07:28:32.312Z,22.80
2019-03-28T07:30:33.704Z,22.43
2019-03-28T07:32:35.103Z,22.70
2019-03-28T07:34:36.461Z,22.20
2019-03-28T07:36:37.827Z,20.43
2019-03-28T07:38:39.238Z,22.00
2019-03-28T07:40:40.601Z,26.77
2019-03-28T07:42:41.973Z,22.37
2019-03-28T07:44:43.350Z,19.73
2019-03-28T07:46:47.487Z,23.63
2019-03-28T07:48:48.123Z,19.53
2019-03-28T07:50:49.510Z,24.07
2019-03-28T07:52:50.861Z,24.73
2019-03-28T07:54:52.257Z,20.67
2019-03-28T07:56:53.633Z,19.83
2019-03-28T07:58:55.011Z,21.27
2019-03-28T08:00:56.354Z,23.57
2019-03-28T08:02:58.526Z,23.30
2019-03-28T08:05:01.449Z,22.70
2019-03-28T08:07:03.342Z,19.43
2019-03-28T08:09:08.296Z,23.87
2019-03-28T08:11:09.665Z,20.53
2019-03-28T08:13:11.066Z,18.20
2019-03-28T08:15:12.953Z,21.77
2019-03-28T08:17:14.323Z,19.23
2019-03-28T08:19:15.818Z,24.53
2019-03-28T08:21:17.177Z,22.30
2019-03-28T08:23:18.540Z,20.80
2019-03-28T08:25:19.959Z,24.93
2019-03-28T08:27:21.314Z,21.90
2019-03-28T08:29:22.697Z,21.47
2019-03-28T08:31:24.081Z,25.53
2019-03-28T08:33:26.481Z,24.63
2019-03-28T08:35:29.661Z,21.93
2019-03-28T08:37:31.138Z,22.80
2019-03-28T08:39:32.781Z,22.87
2019-03-28T08:41:34.187Z,24.80
2019-03-28T08:43:36.079Z,20.20
2019-03-28T08:45:37.549Z,20.17
2019-03-28T08:47:38.949Z,25.77
2019-03-28T08:49:40.327Z,22.13
2019-03-28T08:51:41.701Z,22.17
2019-03-28T08:53:43.089Z,26.70
2019-03-28T08:55:44.459Z,20.00
2019-03-28T08:57:45.839Z,23.30
2019-03-28T08:59:47.194Z,23.60
2019-03-28T09:01:48.614Z,26.10
2019-03-28T09:03:49.988Z,26.53
2019-03-28T09:05:51.438Z,28.33
2019-03-28T09:07:52.881Z,24.80
2019-03-28T09:09:54.248Z,28.83
2019-03-28T09:11:55.612Z,29.13
2019-03-28T09:13:57.011Z,23.50
2019-03-28T09:15:58.376Z,27.70
2019-03-28T09:18:00.404Z,25.33
2019-03-28T09:20:07.705Z,28.63
2019-03-28T09:22:09.093Z,33.53
2019-03-28T09:24:10.451Z,24.77
2019-03-28T09:26:11.812Z,28.20
2019-03-28T09:28:13.318Z,25.73
2019-03-28T09:30:26.372Z,24.23
2019-03-28T09:32:28.331Z,25.13
2019-03-28T09:34:29.737Z,28.97
2019-03-28T09:36:31.110Z,28.27
2019-03-28T09:38:32.477Z,28.60
2019-03-28T09:40:33.884Z,27.60
2019-03-28T09:42:35.243Z,30.77
2019-03-28T09:44:36.606Z,29.27
2019-03-28T09:46:38.016Z,26.07
2019-03-28T09:48:39.464Z,29.17
2019-03-28T09:50:40.826Z,28.37
2019-03-28T09:52:42.221Z,25.53
2019-03-28T09:54:43.591Z,25.27
2019-03-28T09:56:44.944Z,25.90
2019-03-28T09:58:46.331Z,21.70
2019-03-28T10:01:01.667Z,24.37
2019-03-28T10:02:51.026Z,21.83
2019-03-28T10:04:52.378Z,18.87
2019-03-28T10:06:53.762Z,21.40
2019-03-28T10:08:55.192Z,19.93
2019-03-28T10:10:56.655Z,21.03
2019-03-28T10:12:58.082Z,21.07
2019-03-28T10:14:59.446Z,23.93
2019-03-28T10:17:01.454Z,25.40
2019-03-28T10:19:03.156Z,20.20
2019-03-28T10:21:04.605Z,20.13
2019-03-28T10:23:06.078Z,20.60
2019-03-28T10:25:07.929Z,21.30
2019-03-28T10:27:09.309Z,28.27
2019-03-28T10:29:10.668Z,23.17
2019-03-28T10:31:16.603Z,22.13
2019-03-28T10:33:16.232Z,21.20
2019-03-28T10:35:25.880Z,21.37
2019-03-28T10:37:27.236Z,20.63
2019-03-28T10:39:28.654Z,19.70
2019-03-28T10:41:30.005Z,21.60
2019-03-28T10:43:31.411Z,23.67
2019-03-28T10:45:33.701Z,23.77
2019-03-28T10:47:35.335Z,17.83
2019-03-28T10:49:36.736Z,20.63
2019-03-28T10:51:38.109Z,22.60
2019-03-28T10:53:39.451Z,25.43
2019-03-28T10:55:40.860Z,21.30
2019-03-28T10:57:42.217Z,19.10
2019-03-28T10:59:43.564Z,20.70
2019-03-28T11:01:50.280Z,23.73
2019-03-28T11:03:48.429Z,19.00
2019-03-28T11:05:49.813Z,20.13
2019-03-28T11:07:51.223Z,19.80
2019-03-28T11:09:52.600Z,20.70
2019-03-28T11:11:53.950Z,18.43
2019-03-28T11:13:55.329Z,18.60
2019-03-28T11:15:56.684Z,16.43
2019-03-28T11:17:58.054Z,21.60
2019-03-28T11:19:59.442Z,18.03
2019-03-28T11:22:00.850Z,19.40
2019-03-28T11:24:02.213Z,17.13
2019-03-28T11:26:03.619Z,17.17
2019-03-28T11:28:04.984Z,16.33
2019-03-28T11:30:07.253Z,16.97
2019-03-28T11:32:08.742Z,18.70
2019-03-28T11:34:10.307Z,20.40
2019-03-28T11:36:11.666Z,16.37
2019-03-28T11:38:13.044Z,19.73
2019-03-28T11:40:14.730Z,20.17
2019-03-28T11:42:16.107Z,17.90
2019-03-28T11:44:17.782Z,14.20
2019-03-28T11:46:19.130Z,17.23
2019-03-28T11:48:20.500Z,12.83
2019-03-28T11:50:21.885Z,13.60
2019-03-28T11:52:23.272Z,15.40
2019-03-28T11:54:24.669Z,16.30
2019-03-28T11:56:26.029Z,14.43
2019-03-28T11:58:27.388Z,15.90
2019-03-28T12:00:29.515Z,15.60
2019-03-28T12:02:31.159Z,11.63
2019-03-28T12:04:32.534Z,19.13
2019-03-28T12:06:33.937Z,12.80
2019-03-28T12:08:35.345Z,14.10
2019-03-28T12:10:36.723Z,16.07
2019-03-28T12:12:38.110Z,18.03
2019-03-28T12:14:39.507Z,15.53
2019-03-28T12:16:40.847Z,13.60
2019-03-28T12:18:42.364Z,13.50
2019-03-28T12:20:45.550Z,13.20
2019-03-28T12:22:47.040Z,15.97
2019-03-28T12:24:48.400Z,15.13
2019-03-28T12:26:49.766Z,14.87
2019-03-28T12:28:51.153Z,11.23
2019-03-28T12:30:52.528Z,11.63
2019-03-28T12:32:53.954Z,18.20
2019-03-28T12:34:55.366Z,13.13
2019-03-28T12:36:56.711Z,12.87
2019-03-28T12:38:58.477Z,15.53
2019-03-28T12:40:59.873Z,13.00
2019-03-28T12:43:01.231Z,20.37
2019-03-28T12:45:12.208Z,12.87
2019-03-28T12:47:13.660Z,14.70
2019-03-28T12:49:15.064Z,14.73
2019-03-28T12:51:16.425Z,18.70
2019-03-28T12:53:17.841Z,18.83
2019-03-28T12:55:19.201Z,13.30
2019-03-28T12:57:20.652Z,12.93
2019-03-28T12:59:22.043Z,15.93
2019-03-28T13:01:24.496Z,15.27
2019-03-28T13:03:26.095Z,14.17
2019-03-28T13:05:27.446Z,14.17
2019-03-28T13:07:28.855Z,15.90
2019-03-28T13:09:30.278Z,14.73
2019-03-28T13:11:31.617Z,15.70
2019-03-28T13:13:32.991Z,16.27
2019-03-28T13:15:34.378Z,16.50
2019-03-28T13:17:35.742Z,19.77
2019-03-28T13:19:37.113Z,16.80
2019-03-28T13:21:38.505Z,17.90
2019-03-28T13:23:39.905Z,18.97
2019-03-28T13:25:41.280Z,15.47
2019-03-28T13:27:42.640Z,14.23
2019-03-28T13:29:44.023Z,20.03
2019-03-28T13:31:45.376Z,19.17
2019-03-28T13:33:46.772Z,17.23
2019-03-28T13:35:48.144Z,18.33
2019-03-28T13:37:49.492Z,21.47
2019-03-28T13:39:50.883Z,20.33
2019-03-28T13:41:52.252Z,15.40
2019-03-28T13:43:53.619Z,16.10
2019-03-28T13:45:54.999Z,18.60
2019-03-28T13:47:56.368Z,18.97
2019-03-28T13:49:57.757Z,19.00
2019-03-28T13:51:59.341Z,21.23
2019-03-28T13:54:00.702Z,16.30
2019-03-28T13:56:02.038Z,17.03
2019-03-28T13:58:03.445Z,21.10
2019-03-28T14:00:06.642Z,21.67
2019-03-28T14:02:07.996Z,18.90
2019-03-28T14:04:09.394Z,16.90
2019-03-28T14:06:10.760Z,23.90
2019-03-28T14:08:12.356Z,18.90
2019-03-28T14:10:13.924Z,21.40
2019-03-28T14:12:15.442Z,16.30
2019-03-28T14:14:16.813Z,18.57
2019-03-28T14:16:18.202Z,16.47
2019-03-28T14:18:19.773Z,18.50
2019-03-28T14:20:22.480Z,20.03
2019-03-28T14:22:23.972Z,19.23
2019-03-28T14:24:25.354Z,17.80
2019-03-28T14:26:26.700Z,26.63
2019-03-28T14:28:28.077Z,21.43
2019-03-28T14:30:29.448Z,19.83
2019-03-28T14:32:33.088Z,21.70
2019-03-28T14:34:34.105Z,20.80
2019-03-28T14:36:35.449Z,21.93
2019-03-28T14:38:37.626Z,22.37
2019-03-28T14:40:39.207Z,21.57
2019-03-28T14:42:40.946Z,19.10
2019-03-28T14:44:42.563Z,22.40
2019-03-28T14:46:43.920Z,21.53
2019-03-28T14:48:45.426Z,18.93
2019-03-28T14:50:46.964Z,26.60
2019-03-28T14:52:48.348Z,24.07
2019-03-28T14:54:49.723Z,24.40
2019-03-28T14:56:51.177Z,27.97
2019-03-28T14:58:55.774Z,22.63
2019-03-28T15:00:57.190Z,27.17
2019-03-28T15:02:58.578Z,23.63
2019-03-28T15:04:59.962Z,27.80
2019-03-28T15:07:01.307Z,26.27
2019-03-28T15:09:07.228Z,26.73
2019-03-28T15:11:08.573Z,25.67
2019-03-28T15:13:09.946Z,28.10
2019-03-28T15:15:11.539Z,25.00
2019-03-28T15:17:12.929Z,23.87
2019-03-28T15:19:14.296Z,22.50
2019-03-28T15:21:15.668Z,24.33
2019-03-28T15:23:17.021Z,22.93
2019-03-28T15:25:18.371Z,26.33
2019-03-28T15:27:19.743Z,21.63
2019-03-28T15:29:24.011Z,23.53
2019-03-28T15:31:25.489Z,22.40
2019-03-28T15:33:38.831Z,24.60
2019-03-28T15:35:30.283Z,28.33
2019-03-28T15:37:31.649Z,22.00
2019-03-28T15:39:33.048Z,20.90
2019-03-28T15:41:35.326Z,20.53
2019-03-28T15:43:36.662Z,21.23
2019-03-28T15:45:38.004Z,29.57
2019-03-28T15:47:39.383Z,23.37
2019-03-28T15:49:40.732Z,20.50
2019-03-28T15:51:42.066Z,20.83
2019-03-28T15:53:43.439Z,21.03
2019-03-28T15:55:44.796Z,25.10
2019-03-28T15:57:46.650Z,24.03
2019-03-28T15:59:48.086Z,26.13
2019-03-28T16:01:49.496Z,21.03
2019-03-28T16:03:53.037Z,23.43
2019-03-28T16:05:58.426Z,21.60
2019-03-28T16:07:59.312Z,21.47
2019-03-28T16:10:00.686Z,22.47
2019-03-28T16:12:03.090Z,21.30
2019-03-28T16:14:04.707Z,21.60
2019-03-28T16:16:06.053Z,24.97
2019-03-28T16:18:07.429Z,23.23
2019-03-28T16:20:09.368Z,31.03
2019-03-28T16:22:11.642Z,21.70
2019-03-28T16:24:13.318Z,23.80
2019-03-28T16:26:14.757Z,29.20
2019-03-28T16:28:16.125Z,22.10
2019-03-28T16:30:23.196Z,21.93
2019-03-28T16:32:24.544Z,26.17
2019-03-28T16:34:25.962Z,26.00
2019-03-28T16:36:27.336Z,24.60
2019-03-28T16:38:28.681Z,26.57
2019-03-28T16:40:30.687Z,22.10
2019-03-28T16:42:32.966Z,26.03
2019-03-28T16:44:34.324Z,24.70
2019-03-28T16:46:35.696Z,25.80
2019-03-28T16:48:37.062Z,40.23
2019-03-28T16:50:38.436Z,28.20
2019-03-28T16:52:39.821Z,24.70
2019-03-28T16:54:41.155Z,23.60
2019-03-28T16:56:42.524Z,26.20
2019-03-28T16:58:43.906Z,29.40
2019-03-28T17:00:45.263Z,22.30
2019-03-28T17:02:46.660Z,24.90
2019-03-28T17:04:48.005Z,33.50
2019-03-28T17:06:50.080Z,29.53
2019-03-28T17:08:51.547Z,26.60
2019-03-28T17:10:53.234Z,23.30
2019-03-28T17:12:54.589Z,27.20
2019-03-28T17:14:55.937Z,21.53
2019-03-28T17:16:57.313Z,24.77
2019-03-28T17:18:58.664Z,24.40
2019-03-28T17:21:00.008Z,24.40
2019-03-28T17:23:01.821Z,26.87
2019-03-28T17:25:05.245Z,23.70
2019-03-28T17:27:06.595Z,23.67
2019-03-28T17:29:07.973Z,26.27
2019-03-28T17:31:09.331Z,25.67
2019-03-28T17:33:10.665Z,22.20
2019-03-28T17:35:13.029Z,29.63
2019-03-28T17:37:14.491Z,22.23
2019-03-28T17:39:15.841Z,23.17
2019-03-28T17:41:17.325Z,25.20
2019-03-28T17:43:18.671Z,23.60
2019-03-28T17:45:20.045Z,23.70
2019-03-28T17:47:21.445Z,24.10
2019-03-28T17:49:22.832Z,22.60
2019-03-28T17:51:24.187Z,22.43
2019-03-28T17:53:25.574Z,22.70
2019-03-28T17:55:27.024Z,20.90
2019-03-28T17:57:28.368Z,21.47
2019-03-28T17:59:29.734Z,21.90
2019-03-28T18:01:31.109Z,19.17
2019-03-28T18:03:32.452Z,23.77
2019-03-28T18:05:33.799Z,19.17
2019-03-28T18:07:35.666Z,18.57
2019-03-28T18:09:37.830Z,15.97
2019-03-28T18:11:39.387Z,20.17
2019-03-28T18:13:40.782Z,18.00
2019-03-28T18:15:42.231Z,17.80
2019-03-28T18:17:43.579Z,22.67
2019-03-28T18:19:44.965Z,16.43
2019-03-28T18:21:46.322Z,17.80
2019-03-28T18:23:47.729Z,17.90
2019-03-28T18:25:49.095Z,17.53
2019-03-28T18:27:50.473Z,20.60
2019-03-28T18:29:51.865Z,22.30
2019-03-28T18:31:53.261Z,22.33
2019-03-28T18:33:54.632Z,16.83
2019-03-28T18:35:55.980Z,16.80
2019-03-28T18:37:57.376Z,19.10
2019-03-28T18:39:58.715Z,24.30
2019-03-28T18:42:00.071Z,17.50
2019-03-28T18:44:01.724Z,25.77
2019-03-28T18:46:03.113Z,19.93
2019-03-28T18:48:04.559Z,17.83
2019-03-28T18:50:07.052Z,20.30
2019-03-28T18:52:08.433Z,18.57
2019-03-28T18:54:09.840Z,18.77
2019-03-28T18:56:11.189Z,17.23
2019-03-28T18:58:12.599Z,27.00
2019-03-28T19:00:14.848Z,22.33
2019-03-28T19:02:16.192Z,19.60
2019-03-28T19:04:17.589Z,20.83
2019-03-28T19:06:18.968Z,16.07
2019-03-28T19:08:20.310Z,20.67
2019-03-28T19:10:21.709Z,24.23
2019-03-28T19:12:23.051Z,20.63
2019-03-28T19:14:24.397Z,22.87
2019-03-28T19:16:25.878Z,19.43
2019-03-28T19:18:27.251Z,21.47
2019-03-28T19:20:28.589Z,18.60
2019-03-28T19:22:29.962Z,17.23
2019-03-28T19:24:31.334Z,20.00
2019-03-28T19:26:32.718Z,18.47
2019-03-28T19:28:34.075Z,21.97
2019-03-28T19:30:35.519Z,22.47
2019-03-28T19:32:36.894Z,17.83
2019-03-28T19:34:38.244Z,26.67
2019-03-28T19:36:39.690Z,22.03
2019-03-28T19:38:41.201Z,21.43
2019-03-28T19:40:42.646Z,19.00
2019-03-28T19:42:44.150Z,23.27
2019-03-28T19:44:46.062Z,24.07
2019-03-28T19:46:47.443Z,29.13
2019-03-28T19:48:49.190Z,17.10
2019-03-28T19:50:50.670Z,25.40
2019-03-28T19:52:52.015Z,21.63
2019-03-28T19:54:53.609Z,18.70
2019-03-28T19:56:57.350Z,27.63
2019-03-28T19:58:59.137Z,19.07
2019-03-28T20:01:00.809Z,25.37
2019-03-28T20:03:02.762Z,26.30
2019-03-28T20:05:05.779Z,26.03
2019-03-28T20:07:20.601Z,25.97
2019-03-28T20:09:16.054Z,22.57
2019-03-28T20:11:13.788Z,23.37
2019-03-28T20:13:15.132Z,25.10
2019-03-28T20:15:16.873Z,20.63
2019-03-28T20:17:18.275Z,20.87
2019-03-28T20:19:19.637Z,21.00
2019-03-28T20:21:20.980Z,22.00
2019-03-28T20:23:22.788Z,18.63
2019-03-28T20:25:24.338Z,20.73
2019-03-28T20:27:25.677Z,19.80
2019-03-28T20:29:27.077Z,39.87
2019-03-28T20:31:28.425Z,28.70
2019-03-28T20:33:29.765Z,31.30
2019-03-28T20:35:31.470Z,23.23
2019-03-28T20:37:32.816Z,22.13
2019-03-28T20:39:34.155Z,31.57
2019-03-28T20:41:35.751Z,28.00
2019-03-28T20:43:37.315Z,26.60
2019-03-28T20:45:38.645Z,29.93
2019-03-28T20:47:40.412Z,22.97
2019-03-28T20:49:41.774Z,24.00
2019-03-28T20:51:43.174Z,21.13
2019-03-28T20:53:44.541Z,21.63
2019-03-28T20:55:46.039Z,19.03
2019-03-28T20:57:47.386Z,17.87
2019-03-28T20:59:48.771Z,18.10
2019-03-28T21:01:50.151Z,17.53
2019-03-28T21:03:52.049Z,24.30
2019-03-28T21:05:53.417Z,17.30
2019-03-28T21:07:54.816Z,15.77
2019-03-28T21:09:56.214Z,16.50
2019-03-28T21:11:57.563Z,17.13
2019-03-28T21:13:58.902Z,17.80
2019-03-28T21:16:00.352Z,21.83
2019-03-28T21:18:01.750Z,21.10
2019-03-28T21:20:25.922Z,23.10
2019-03-28T21:23:07.078Z,22.60
2019-03-28T21:25:48.933Z,23.33
2019-03-28T21:27:50.400Z,21.30
2019-03-28T21:29:51.769Z,21.90
2019-03-28T21:31:53.156Z,23.77
2019-03-28T21:33:55.022Z,22.17
2019-03-28T21:35:56.510Z,20.53
2019-03-28T21:37:57.855Z,19.77
2019-03-28T21:39:59.257Z,15.90
2019-03-28T21:42:00.728Z,13.33
2019-03-28T21:44:02.105Z,18.20
2019-03-28T21:46:03.472Z,18.00
2019-03-28T21:48:04.828Z,18.53
2019-03-28T21:50:06.521Z,23.10
2019-03-28T21:52:07.889Z,23.13
2019-03-28T21:54:09.338Z,21.00
2019-03-28T21:56:14.015Z,17.60
2019-03-28T21:58:13.988Z,22.13
2019-03-28T22:00:15.744Z,18.27
2019-03-28T22:02:17.241Z,16.80
2019-03-28T22:04:18.584Z,20.93
2019-03-28T22:06:20.230Z,19.20
2019-03-28T22:08:21.605Z,18.77
2019-03-28T22:10:22.990Z,24.67
2019-03-28T22:12:24.342Z,18.73
2019-03-28T22:14:25.734Z,27.30
2019-03-28T22:16:27.079Z,25.10
2019-03-28T22:18:28.427Z,21.53
2019-03-28T22:20:29.830Z,23.80
2019-03-28T22:22:31.176Z,27.10
2019-03-28T22:24:32.664Z,28.03
2019-03-28T22:26:34.176Z,27.67
2019-03-28T22:28:37.887Z,25.77
2019-03-28T22:30:39.011Z,26.80
2019-03-28T22:32:40.679Z,26.43
2019-03-28T22:34:42.027Z,26.43
2019-03-28T22:36:56.235Z,33.57
2019-03-28T22:38:46.852Z,31.37
2019-03-28T22:40:48.594Z,33.67
2019-03-28T22:42:50.017Z,23.97
2019-03-28T22:44:51.470Z,31.10
2019-03-28T22:46:52.848Z,27.63
2019-03-28T22:48:54.237Z,24.10
2019-03-28T22:50:55.597Z,28.37
2019-03-28T22:52:56.954Z,22.87
2019-03-28T22:54:58.316Z,19.00
2019-03-28T22:56:59.701Z,27.00
2019-03-28T22:59:01.185Z,25.37
2019-03-28T23:01:03.520Z,21.83
2019-03-28T23:03:05.103Z,26.70
2019-03-28T23:05:07.287Z,24.93
2019-03-28T23:07:11.219Z,29.73
2019-03-28T23:09:11.923Z,27.07
2019-03-28T23:11:13.923Z,25.87
2019-03-28T23:13:15.476Z,31.30
2019-03-28T23:15:16.945Z,27.63
2019-03-28T23:17:18.328Z,29.97
2019-03-28T23:19:19.688Z,23.67
2019-03-28T23:21:21.020Z,23.13
2019-03-28T23:23:22.416Z,17.53
2019-03-28T23:25:23.751Z,21.23
2019-03-28T23:27:25.383Z,20.73
2019-03-28T23:29:26.792Z,24.57
2019-03-28T23:31:28.148Z,23.87
2019-03-28T23:33:30.301Z,30.40
2019-03-28T23:35:32.330Z,31.17
2019-03-28T23:37:33.676Z,29.27
2019-03-28T23:39:35.088Z,29.37
2019-03-28T23:41:36.437Z,33.27
2019-03-28T23:43:37.799Z,34.97
2019-03-28T23:45:39.280Z,32.73
2019-03-28T23:47:40.917Z,33.40
2019-03-28T23:49:42.284Z,40.87
2019-03-28T23:51:43.634Z,29.03
2019-03-28T23:53:45.023Z,36.80
2019-03-28T23:55:46.365Z,30.77
2019-03-28T23:57:47.730Z,29.97
2019-03-28T23:59:49.096Z,30.07
